sensor_id;sensor_type;location;lat;lon;timestamp;P1;durP1;ratioP1;P2;durP2;ratioP2
55800;SDS011;41730;51.960;20.158;2022-07-29T00:01:41;8.40;;;3.40;;
55800;SDS011;41730;51.960;20.158;2022-07-29T00:04:11;7.80;;;3.70;;
55800;SDS011;41730;51.960;20.158;2022-07-29T00:06:41;8.00;;;3.50;;
55800;SDS011;41730;51.960;20.158;2022-07-29T00:09:15;8.40;;;3.10;;
55800;SDS011;41730;51.960;20.158;2022-07-29T00:11:44;5.90;;;3.30;;
55800;SDS011;41730;51.960;20.158;2022-07-29T00:14:13;8.60;;;4.10;;
55800;SDS011;41730;51.960;20.158;2022-07-29T00:16:43;6.90;;;3.40;;
55800;SDS011;41730;51.960;20.158;2022-07-29T00:19:12;6.20;;;3.10;;
55800;SDS011;41730;51.960;20.158;2022-07-29T00:21:42;5.70;;;3.30;;
55800;SDS011;41730;51.960;20.158;2022-07-29T00:24:11;8.80;;;3.50;;
55800;SDS011;41730;51.960;20.158;2022-07-29T00:26:41;8.30;;;3.90;;
55800;SDS011;41730;51.960;20.158;2022-07-29T00:29:10;7.90;;;4.20;;
55800;SDS011;41730;51.960;20.158;2022-07-29T00:31:59;5.70;;;3.90;;
55800;SDS011;41730;51.960;20.158;2022-07-29T00:34:28;5.90;;;3.80;;
55800;SDS011;41730;51.960;20.158;2022-07-29T00:37:30;5.60;;;3.60;;
55800;SDS011;41730;51.960;20.158;2022-07-29T00:39:59;8.80;;;3.50;;
55800;SDS011;41730;51.960;20.158;2022-07-29T00:42:29;6.60;;;3.60;;
55800;SDS011;41730;51.960;20.158;2022-07-29T00:44:58;10.00;;;3.90;;
55800;SDS011;41730;51.960;20.158;2022-07-29T00:47:27;7.70;;;3.30;;
55800;SDS011;41730;51.960;20.158;2022-07-29T00:49:56;5.80;;;3.70;;
55800;SDS011;41730;51.960;20.158;2022-07-29T00:52:26;5.00;;;3.30;;
55800;SDS011;41730;51.960;20.158;2022-07-29T00:54:55;6.40;;;3.60;;
55800;SDS011;41730;51.960;20.158;2022-07-29T00:57:25;4.70;;;3.10;;
55800;SDS011;41730;51.960;20.158;2022-07-29T00:59:54;5.90;;;3.80;;
55800;SDS011;41730;51.960;20.158;2022-07-29T01:02:23;5.10;;;3.70;;
55800;SDS011;41730;51.960;20.158;2022-07-29T01:04:54;6.30;;;3.70;;
55800;SDS011;41730;51.960;20.158;2022-07-29T01:07:24;7.40;;;3.30;;
55800;SDS011;41730;51.960;20.158;2022-07-29T01:09:55;6.30;;;3.60;;
55800;SDS011;41730;51.960;20.158;2022-07-29T01:12:26;6.70;;;3.80;;
55800;SDS011;41730;51.960;20.158;2022-07-29T01:14:58;7.50;;;3.50;;
55800;SDS011;41730;51.960;20.158;2022-07-29T01:17:31;7.60;;;4.00;;
55800;SDS011;41730;51.960;20.158;2022-07-29T01:20:05;5.40;;;3.80;;
55800;SDS011;41730;51.960;20.158;2022-07-29T01:23:04;5.90;;;3.70;;
55800;SDS011;41730;51.960;20.158;2022-07-29T01:25:57;6.40;;;3.50;;
55800;SDS011;41730;51.960;20.158;2022-07-29T01:28:57;7.20;;;3.70;;
55800;SDS011;41730;51.960;20.158;2022-07-29T01:31:45;8.90;;;3.30;;
55800;SDS011;41730;51.960;20.158;2022-07-29T01:34:29;6.40;;;3.60;;
55800;SDS011;41730;51.960;20.158;2022-07-29T01:37:06;6.50;;;3.70;;
55800;SDS011;41730;51.960;20.158;2022-07-29T01:39:42;8.70;;;3.70;;
55800;SDS011;41730;51.960;20.158;2022-07-29T01:42:14;4.60;;;2.90;;
55800;SDS011;41730;51.960;20.158;2022-07-29T01:44:48;6.70;;;3.30;;
55800;SDS011;41730;51.960;20.158;2022-07-29T01:47:28;7.30;;;3.20;;
55800;SDS011;41730;51.960;20.158;2022-07-29T01:50:03;5.70;;;3.60;;
55800;SDS011;41730;51.960;20.158;2022-07-29T01:52:39;8.30;;;3.50;;
55800;SDS011;41730;51.960;20.158;2022-07-29T01:55:14;5.20;;;3.40;;
55800;SDS011;41730;51.960;20.158;2022-07-29T01:57:46;9.10;;;4.20;;
55800;SDS011;41730;51.960;20.158;2022-07-29T02:00:17;7.20;;;3.70;;
55800;SDS011;41730;51.960;20.158;2022-07-29T02:02:48;6.70;;;3.80;;
55800;SDS011;41730;51.960;20.158;2022-07-29T02:05:20;6.00;;;3.50;;
55800;SDS011;41730;51.960;20.158;2022-07-29T02:07:52;7.10;;;3.80;;
55800;SDS011;41730;51.960;20.158;2022-07-29T02:10:24;7.20;;;3.80;;
55800;SDS011;41730;51.960;20.158;2022-07-29T02:12:56;7.40;;;3.70;;
55800;SDS011;41730;51.960;20.158;2022-07-29T02:15:27;9.00;;;4.00;;
55800;SDS011;41730;51.960;20.158;2022-07-29T02:18:01;8.20;;;4.20;;
55800;SDS011;41730;51.960;20.158;2022-07-29T02:20:34;6.10;;;3.50;;
55800;SDS011;41730;51.960;20.158;2022-07-29T02:23:04;5.30;;;3.10;;
55800;SDS011;41730;51.960;20.158;2022-07-29T02:25:34;6.60;;;3.20;;
55800;SDS011;41730;51.960;20.158;2022-07-29T02:28:06;6.00;;;3.90;;
55800;SDS011;41730;51.960;20.158;2022-07-29T02:30:38;5.30;;;3.60;;
55800;SDS011;41730;51.960;20.158;2022-07-29T02:33:10;5.60;;;3.40;;
55800;SDS011;41730;51.960;20.158;2022-07-29T02:35:43;6.00;;;3.70;;
55800;SDS011;41730;51.960;20.158;2022-07-29T02:38:15;6.80;;;3.70;;
55800;SDS011;41730;51.960;20.158;2022-07-29T02:41:05;7.80;;;3.90;;
55800;SDS011;41730;51.960;20.158;2022-07-29T02:43:38;8.40;;;3.70;;
55800;SDS011;41730;51.960;20.158;2022-07-29T02:46:11;7.50;;;4.00;;
55800;SDS011;41730;51.960;20.158;2022-07-29T02:48:57;7.00;;;3.60;;
55800;SDS011;41730;51.960;20.158;2022-07-29T02:51:43;6.60;;;3.80;;
55800;SDS011;41730;51.960;20.158;2022-07-29T02:56:50;6.00;;;3.50;;
55800;SDS011;41730;51.960;20.158;2022-07-29T02:59:23;5.20;;;3.50;;
55800;SDS011;41730;51.960;20.158;2022-07-29T03:01:55;7.70;;;4.00;;
55800;SDS011;41730;51.960;20.158;2022-07-29T03:04:27;5.60;;;3.80;;
55800;SDS011;41730;51.960;20.158;2022-07-29T03:06:58;6.80;;;3.60;;
55800;SDS011;41730;51.960;20.158;2022-07-29T03:09:28;8.10;;;3.70;;
55800;SDS011;41730;51.960;20.158;2022-07-29T03:11:59;5.10;;;3.60;;
55800;SDS011;41730;51.960;20.158;2022-07-29T03:14:31;6.60;;;3.80;;
55800;SDS011;41730;51.960;20.158;2022-07-29T03:17:01;6.70;;;4.10;;
55800;SDS011;41730;51.960;20.158;2022-07-29T03:19:31;7.10;;;3.50;;
55800;SDS011;41730;51.960;20.158;2022-07-29T03:22:02;7.80;;;3.80;;
55800;SDS011;41730;51.960;20.158;2022-07-29T03:24:33;6.90;;;3.60;;
55800;SDS011;41730;51.960;20.158;2022-07-29T03:27:04;7.30;;;3.80;;
55800;SDS011;41730;51.960;20.158;2022-07-29T03:29:33;5.60;;;3.50;;
55800;SDS011;41730;51.960;20.158;2022-07-29T03:32:08;6.70;;;3.80;;
55800;SDS011;41730;51.960;20.158;2022-07-29T03:34:57;6.50;;;3.50;;
55800;SDS011;41730;51.960;20.158;2022-07-29T03:37:46;5.70;;;3.60;;
55800;SDS011;41730;51.960;20.158;2022-07-29T03:40:35;5.50;;;3.50;;
55800;SDS011;41730;51.960;20.158;2022-07-29T03:43:27;6.80;;;3.20;;
55800;SDS011;41730;51.960;20.158;2022-07-29T03:46:19;5.50;;;3.30;;
55800;SDS011;41730;51.960;20.158;2022-07-29T03:49:08;6.10;;;4.00;;
55800;SDS011;41730;51.960;20.158;2022-07-29T03:51:56;6.60;;;3.80;;
55800;SDS011;41730;51.960;20.158;2022-07-29T03:54:46;4.00;;;3.00;;
55800;SDS011;41730;51.960;20.158;2022-07-29T03:57:32;5.00;;;2.80;;
55800;SDS011;41730;51.960;20.158;2022-07-29T04:00:21;7.70;;;3.50;;
55800;SDS011;41730;51.960;20.158;2022-07-29T04:03:07;10.30;;;4.10;;
55800;SDS011;41730;51.960;20.158;2022-07-29T04:06:00;8.80;;;3.60;;
55800;SDS011;41730;51.960;20.158;2022-07-29T04:08:32;7.90;;;3.30;;
55800;SDS011;41730;51.960;20.158;2022-07-29T04:11:02;6.50;;;2.60;;
55800;SDS011;41730;51.960;20.158;2022-07-29T04:13:32;8.80;;;3.20;;
55800;SDS011;41730;51.960;20.158;2022-07-29T04:16:01;4.80;;;2.90;;
55800;SDS011;41730;51.960;20.158;2022-07-29T04:18:31;5.70;;;2.60;;
55800;SDS011;41730;51.960;20.158;2022-07-29T04:21:00;6.20;;;2.90;;
55800;SDS011;41730;51.960;20.158;2022-07-29T04:23:31;6.40;;;3.00;;
55800;SDS011;41730;51.960;20.158;2022-07-29T04:26:00;3.60;;;2.60;;
55800;SDS011;41730;51.960;20.158;2022-07-29T04:28:29;4.80;;;3.00;;
55800;SDS011;41730;51.960;20.158;2022-07-29T04:30:58;4.50;;;2.60;;
55800;SDS011;41730;51.960;20.158;2022-07-29T04:33:28;8.90;;;2.80;;
55800;SDS011;41730;51.960;20.158;2022-07-29T04:35:58;5.70;;;2.90;;
55800;SDS011;41730;51.960;20.158;2022-07-29T04:38:27;5.10;;;2.60;;
55800;SDS011;41730;51.960;20.158;2022-07-29T04:40:56;4.80;;;2.90;;
55800;SDS011;41730;51.960;20.158;2022-07-29T04:43:26;5.50;;;3.40;;
55800;SDS011;41730;51.960;20.158;2022-07-29T04:46:03;5.10;;;3.30;;
55800;SDS011;41730;51.960;20.158;2022-07-29T04:48:34;6.10;;;3.30;;
55800;SDS011;41730;51.960;20.158;2022-07-29T04:51:03;6.80;;;3.50;;
55800;SDS011;41730;51.960;20.158;2022-07-29T04:53:33;5.80;;;3.20;;
55800;SDS011;41730;51.960;20.158;2022-07-29T04:56:02;6.10;;;3.00;;
55800;SDS011;41730;51.960;20.158;2022-07-29T04:58:33;5.10;;;3.00;;
55800;SDS011;41730;51.960;20.158;2022-07-29T05:01:03;6.20;;;3.50;;
55800;SDS011;41730;51.960;20.158;2022-07-29T05:03:33;6.00;;;3.40;;
55800;SDS011;41730;51.960;20.158;2022-07-29T05:06:02;6.60;;;3.70;;
55800;SDS011;41730;51.960;20.158;2022-07-29T05:08:31;6.30;;;3.50;;
55800;SDS011;41730;51.960;20.158;2022-07-29T05:11:01;6.40;;;3.50;;
55800;SDS011;41730;51.960;20.158;2022-07-29T05:13:39;12.20;;;4.20;;
55800;SDS011;41730;51.960;20.158;2022-07-29T05:16:12;8.30;;;3.90;;
55800;SDS011;41730;51.960;20.158;2022-07-29T05:18:42;7.00;;;4.00;;
55800;SDS011;41730;51.960;20.158;2022-07-29T05:21:11;8.40;;;4.50;;
55800;SDS011;41730;51.960;20.158;2022-07-29T05:23:41;6.50;;;3.80;;
55800;SDS011;41730;51.960;20.158;2022-07-29T05:26:11;7.00;;;3.30;;
55800;SDS011;41730;51.960;20.158;2022-07-29T05:28:40;5.90;;;3.10;;
55800;SDS011;41730;51.960;20.158;2022-07-29T05:31:09;5.50;;;2.70;;
55800;SDS011;41730;51.960;20.158;2022-07-29T05:33:39;4.70;;;2.50;;
55800;SDS011;41730;51.960;20.158;2022-07-29T05:36:08;7.90;;;2.80;;
55800;SDS011;41730;51.960;20.158;2022-07-29T05:38:37;5.20;;;2.60;;
55800;SDS011;41730;51.960;20.158;2022-07-29T05:41:07;3.90;;;2.30;;
55800;SDS011;41730;51.960;20.158;2022-07-29T05:43:36;3.60;;;2.40;;
55800;SDS011;41730;51.960;20.158;2022-07-29T05:46:05;4.10;;;2.30;;
55800;SDS011;41730;51.960;20.158;2022-07-29T05:48:37;4.50;;;2.30;;
55800;SDS011;41730;51.960;20.158;2022-07-29T05:51:06;6.20;;;2.10;;
55800;SDS011;41730;51.960;20.158;2022-07-29T05:53:35;3.80;;;2.20;;
55800;SDS011;41730;51.960;20.158;2022-07-29T05:56:05;6.30;;;2.00;;
55800;SDS011;41730;51.960;20.158;2022-07-29T05:58:35;4.20;;;2.40;;
55800;SDS011;41730;51.960;20.158;2022-07-29T06:01:04;3.80;;;2.00;;
55800;SDS011;41730;51.960;20.158;2022-07-29T06:03:34;4.60;;;2.10;;
55800;SDS011;41730;51.960;20.158;2022-07-29T06:06:05;5.30;;;2.00;;
55800;SDS011;41730;51.960;20.158;2022-07-29T06:08:34;6.20;;;1.90;;
55800;SDS011;41730;51.960;20.158;2022-07-29T06:11:04;4.30;;;1.90;;
55800;SDS011;41730;51.960;20.158;2022-07-29T06:13:35;3.80;;;2.20;;
55800;SDS011;41730;51.960;20.158;2022-07-29T06:16:05;3.90;;;2.00;;
55800;SDS011;41730;51.960;20.158;2022-07-29T06:18:35;5.70;;;2.00;;
55800;SDS011;41730;51.960;20.158;2022-07-29T06:21:07;5.00;;;1.60;;
55800;SDS011;41730;51.960;20.158;2022-07-29T06:23:37;3.90;;;2.00;;
55800;SDS011;41730;51.960;20.158;2022-07-29T06:26:07;3.40;;;1.80;;
55800;SDS011;41730;51.960;20.158;2022-07-29T06:28:37;3.10;;;1.70;;
55800;SDS011;41730;51.960;20.158;2022-07-29T06:31:07;3.30;;;1.50;;
55800;SDS011;41730;51.960;20.158;2022-07-29T06:33:36;4.10;;;1.60;;
55800;SDS011;41730;51.960;20.158;2022-07-29T06:36:06;5.40;;;1.70;;
55800;SDS011;41730;51.960;20.158;2022-07-29T06:38:38;4.00;;;1.70;;
55800;SDS011;41730;51.960;20.158;2022-07-29T06:41:17;2.60;;;1.70;;
55800;SDS011;41730;51.960;20.158;2022-07-29T06:43:47;2.70;;;1.60;;
55800;SDS011;41730;51.960;20.158;2022-07-29T06:46:21;4.90;;;1.60;;
55800;SDS011;41730;51.960;20.158;2022-07-29T06:48:51;4.60;;;1.40;;
55800;SDS011;41730;51.960;20.158;2022-07-29T06:51:23;4.00;;;1.40;;
55800;SDS011;41730;51.960;20.158;2022-07-29T06:53:52;2.60;;;1.50;;
55800;SDS011;41730;51.960;20.158;2022-07-29T06:56:29;5.30;;;1.90;;
55800;SDS011;41730;51.960;20.158;2022-07-29T06:59:06;3.90;;;1.40;;
55800;SDS011;41730;51.960;20.158;2022-07-29T07:01:37;4.60;;;1.50;;
55800;SDS011;41730;51.960;20.158;2022-07-29T07:04:08;5.00;;;1.50;;
55800;SDS011;41730;51.960;20.158;2022-07-29T07:06:38;3.50;;;1.60;;
55800;SDS011;41730;51.960;20.158;2022-07-29T07:09:08;3.90;;;1.50;;
55800;SDS011;41730;51.960;20.158;2022-07-29T07:11:37;2.50;;;1.30;;
55800;SDS011;41730;51.960;20.158;2022-07-29T07:14:07;4.60;;;1.70;;
55800;SDS011;41730;51.960;20.158;2022-07-29T07:16:36;3.70;;;1.20;;
55800;SDS011;41730;51.960;20.158;2022-07-29T07:19:06;2.00;;;1.10;;
55800;SDS011;41730;51.960;20.158;2022-07-29T07:21:35;2.70;;;1.20;;
55800;SDS011;41730;51.960;20.158;2022-07-29T07:24:05;3.90;;;1.60;;
55800;SDS011;41730;51.960;20.158;2022-07-29T07:26:35;3.50;;;1.40;;
55800;SDS011;41730;51.960;20.158;2022-07-29T07:29:06;3.90;;;1.50;;
55800;SDS011;41730;51.960;20.158;2022-07-29T07:31:36;4.20;;;1.40;;
55800;SDS011;41730;51.960;20.158;2022-07-29T07:34:06;2.90;;;1.40;;
55800;SDS011;41730;51.960;20.158;2022-07-29T07:36:35;3.40;;;1.30;;
55800;SDS011;41730;51.960;20.158;2022-07-29T07:39:05;3.00;;;1.20;;
55800;SDS011;41730;51.960;20.158;2022-07-29T07:41:34;3.00;;;1.10;;
55800;SDS011;41730;51.960;20.158;2022-07-29T07:44:04;3.00;;;1.20;;
55800;SDS011;41730;51.960;20.158;2022-07-29T07:46:34;3.80;;;1.10;;
55800;SDS011;41730;51.960;20.158;2022-07-29T07:49:08;3.90;;;1.20;;
55800;SDS011;41730;51.960;20.158;2022-07-29T07:51:38;3.00;;;1.10;;
55800;SDS011;41730;51.960;20.158;2022-07-29T07:54:07;2.60;;;1.10;;
55800;SDS011;41730;51.960;20.158;2022-07-29T07:56:37;2.70;;;1.10;;
55800;SDS011;41730;51.960;20.158;2022-07-29T07:59:07;3.90;;;1.20;;
55800;SDS011;41730;51.960;20.158;2022-07-29T08:01:38;5.50;;;1.40;;
55800;SDS011;41730;51.960;20.158;2022-07-29T08:06:55;2.50;;;1.10;;
55800;SDS011;41730;51.960;20.158;2022-07-29T08:09:26;2.70;;;1.20;;
55800;SDS011;41730;51.960;20.158;2022-07-29T08:11:57;2.90;;;1.00;;
55800;SDS011;41730;51.960;20.158;2022-07-29T08:14:29;3.00;;;1.10;;
55800;SDS011;41730;51.960;20.158;2022-07-29T08:16:59;3.20;;;1.40;;
55800;SDS011;41730;51.960;20.158;2022-07-29T08:19:29;1.60;;;0.80;;
55800;SDS011;41730;51.960;20.158;2022-07-29T08:21:58;2.10;;;1.00;;
55800;SDS011;41730;51.960;20.158;2022-07-29T08:24:29;3.20;;;1.00;;
55800;SDS011;41730;51.960;20.158;2022-07-29T08:27:10;3.50;;;1.20;;
55800;SDS011;41730;51.960;20.158;2022-07-29T08:30:00;3.60;;;1.20;;
55800;SDS011;41730;51.960;20.158;2022-07-29T08:32:33;2.60;;;1.20;;
55800;SDS011;41730;51.960;20.158;2022-07-29T08:35:20;3.20;;;1.10;;
55800;SDS011;41730;51.960;20.158;2022-07-29T08:37:50;2.30;;;0.90;;
55800;SDS011;41730;51.960;20.158;2022-07-29T08:40:20;1.90;;;0.80;;
55800;SDS011;41730;51.960;20.158;2022-07-29T08:42:59;2.60;;;1.10;;
55800;SDS011;41730;51.960;20.158;2022-07-29T08:45:37;4.80;;;1.10;;
55800;SDS011;41730;51.960;20.158;2022-07-29T08:48:14;3.40;;;0.90;;
55800;SDS011;41730;51.960;20.158;2022-07-29T08:50:45;3.10;;;1.00;;
55800;SDS011;41730;51.960;20.158;2022-07-29T08:53:16;3.50;;;0.90;;
55800;SDS011;41730;51.960;20.158;2022-07-29T08:55:47;4.70;;;1.00;;
55800;SDS011;41730;51.960;20.158;2022-07-29T08:58:17;2.30;;;1.00;;
55800;SDS011;41730;51.960;20.158;2022-07-29T09:00:51;3.70;;;1.00;;
55800;SDS011;41730;51.960;20.158;2022-07-29T09:03:23;3.80;;;0.90;;
55800;SDS011;41730;51.960;20.158;2022-07-29T09:05:57;3.00;;;1.10;;
55800;SDS011;41730;51.960;20.158;2022-07-29T09:08:27;6.60;;;1.00;;
55800;SDS011;41730;51.960;20.158;2022-07-29T09:10:58;2.10;;;1.10;;
55800;SDS011;41730;51.960;20.158;2022-07-29T09:13:30;3.10;;;0.80;;
55800;SDS011;41730;51.960;20.158;2022-07-29T09:16:01;2.70;;;0.80;;
55800;SDS011;41730;51.960;20.158;2022-07-29T09:18:36;5.70;;;1.10;;
55800;SDS011;41730;51.960;20.158;2022-07-29T09:21:07;2.60;;;1.00;;
55800;SDS011;41730;51.960;20.158;2022-07-29T09:24:01;2.40;;;0.90;;
55800;SDS011;41730;51.960;20.158;2022-07-29T09:26:37;3.90;;;1.00;;
55800;SDS011;41730;51.960;20.158;2022-07-29T09:29:10;2.40;;;1.10;;
55800;SDS011;41730;51.960;20.158;2022-07-29T09:31:41;6.60;;;1.00;;
55800;SDS011;41730;51.960;20.158;2022-07-29T09:34:12;2.90;;;1.00;;
55800;SDS011;41730;51.960;20.158;2022-07-29T09:36:43;2.10;;;0.80;;
55800;SDS011;41730;51.960;20.158;2022-07-29T09:39:14;2.20;;;1.00;;
55800;SDS011;41730;51.960;20.158;2022-07-29T09:41:54;2.60;;;0.90;;
55800;SDS011;41730;51.960;20.158;2022-07-29T09:44:25;3.20;;;1.10;;
55800;SDS011;41730;51.960;20.158;2022-07-29T09:47:07;2.20;;;0.80;;
55800;SDS011;41730;51.960;20.158;2022-07-29T09:49:49;2.20;;;0.80;;
55800;SDS011;41730;51.960;20.158;2022-07-29T09:52:21;3.70;;;1.10;;
55800;SDS011;41730;51.960;20.158;2022-07-29T09:54:50;5.10;;;0.90;;
55800;SDS011;41730;51.960;20.158;2022-07-29T09:57:24;2.80;;;1.00;;
55800;SDS011;41730;51.960;20.158;2022-07-29T09:59:58;2.70;;;0.90;;
55800;SDS011;41730;51.960;20.158;2022-07-29T10:02:29;3.60;;;0.90;;
55800;SDS011;41730;51.960;20.158;2022-07-29T10:05:00;1.80;;;0.70;;
55800;SDS011;41730;51.960;20.158;2022-07-29T10:07:43;3.90;;;0.80;;
55800;SDS011;41730;51.960;20.158;2022-07-29T10:10:20;2.40;;;1.00;;
55800;SDS011;41730;51.960;20.158;2022-07-29T10:12:54;2.40;;;0.70;;
55800;SDS011;41730;51.960;20.158;2022-07-29T10:15:31;2.10;;;0.90;;
55800;SDS011;41730;51.960;20.158;2022-07-29T10:18:04;6.20;;;1.20;;
55800;SDS011;41730;51.960;20.158;2022-07-29T10:20:35;3.00;;;0.80;;
55800;SDS011;41730;51.960;20.158;2022-07-29T10:23:05;3.50;;;1.00;;
55800;SDS011;41730;51.960;20.158;2022-07-29T10:25:36;2.40;;;0.90;;
55800;SDS011;41730;51.960;20.158;2022-07-29T10:28:05;2.50;;;0.90;;
55800;SDS011;41730;51.960;20.158;2022-07-29T10:30:42;4.20;;;0.90;;
55800;SDS011;41730;51.960;20.158;2022-07-29T10:33:21;2.30;;;1.00;;
55800;SDS011;41730;51.960;20.158;2022-07-29T10:36:07;1.90;;;0.80;;
55800;SDS011;41730;51.960;20.158;2022-07-29T10:38:53;3.50;;;1.00;;
55800;SDS011;41730;51.960;20.158;2022-07-29T10:44:24;2.40;;;0.90;;
55800;SDS011;41730;51.960;20.158;2022-07-29T10:46:55;3.60;;;1.00;;
55800;SDS011;41730;51.960;20.158;2022-07-29T10:49:26;3.90;;;0.80;;
55800;SDS011;41730;51.960;20.158;2022-07-29T10:51:58;2.30;;;0.70;;
55800;SDS011;41730;51.960;20.158;2022-07-29T10:54:40;1.70;;;0.80;;
55800;SDS011;41730;51.960;20.158;2022-07-29T10:57:14;2.50;;;1.00;;
55800;SDS011;41730;51.960;20.158;2022-07-29T11:00:28;7.00;;;1.10;;
55800;SDS011;41730;51.960;20.158;2022-07-29T11:02:59;2.40;;;0.80;;
55800;SDS011;41730;51.960;20.158;2022-07-29T11:05:53;2.60;;;0.90;;
55800;SDS011;41730;51.960;20.158;2022-07-29T11:08:26;1.70;;;0.70;;
55800;SDS011;41730;51.960;20.158;2022-07-29T11:14:04;3.20;;;0.80;;
55800;SDS011;41730;51.960;20.158;2022-07-29T11:19:33;1.70;;;0.80;;
55800;SDS011;41730;51.960;20.158;2022-07-29T11:22:08;5.50;;;1.10;;
55800;SDS011;41730;51.960;20.158;2022-07-29T11:24:42;3.50;;;1.00;;
55800;SDS011;41730;51.960;20.158;2022-07-29T11:27:17;2.40;;;0.60;;
55800;SDS011;41730;51.960;20.158;2022-07-29T11:29:53;1.90;;;0.90;;
55800;SDS011;41730;51.960;20.158;2022-07-29T11:32:35;3.60;;;0.80;;
55800;SDS011;41730;51.960;20.158;2022-07-29T11:35:13;3.20;;;0.90;;
55800;SDS011;41730;51.960;20.158;2022-07-29T11:37:45;2.50;;;1.10;;
55800;SDS011;41730;51.960;20.158;2022-07-29T11:40:37;4.40;;;0.90;;
55800;SDS011;41730;51.960;20.158;2022-07-29T11:43:09;3.20;;;0.80;;
55800;SDS011;41730;51.960;20.158;2022-07-29T11:45:58;3.50;;;0.90;;
55800;SDS011;41730;51.960;20.158;2022-07-29T11:48:31;3.10;;;0.80;;
55800;SDS011;41730;51.960;20.158;2022-07-29T11:51:02;2.90;;;1.10;;
55800;SDS011;41730;51.960;20.158;2022-07-29T11:53:39;1.80;;;0.70;;
55800;SDS011;41730;51.960;20.158;2022-07-29T11:56:19;3.50;;;1.00;;
55800;SDS011;41730;51.960;20.158;2022-07-29T11:58:52;3.20;;;1.00;;
55800;SDS011;41730;51.960;20.158;2022-07-29T12:01:35;3.10;;;0.90;;
55800;SDS011;41730;51.960;20.158;2022-07-29T12:04:05;3.60;;;0.90;;
55800;SDS011;41730;51.960;20.158;2022-07-29T12:06:37;4.40;;;1.00;;
55800;SDS011;41730;51.960;20.158;2022-07-29T12:09:08;3.60;;;0.90;;
55800;SDS011;41730;51.960;20.158;2022-07-29T12:11:41;3.60;;;1.20;;
55800;SDS011;41730;51.960;20.158;2022-07-29T12:16:58;2.10;;;0.90;;
55800;SDS011;41730;51.960;20.158;2022-07-29T12:19:28;2.00;;;0.90;;
55800;SDS011;41730;51.960;20.158;2022-07-29T12:22:11;2.90;;;1.10;;
55800;SDS011;41730;51.960;20.158;2022-07-29T12:24:43;3.70;;;1.10;;
55800;SDS011;41730;51.960;20.158;2022-07-29T12:27:17;3.40;;;0.80;;
55800;SDS011;41730;51.960;20.158;2022-07-29T12:29:57;3.10;;;0.90;;
55800;SDS011;41730;51.960;20.158;2022-07-29T12:32:33;2.70;;;0.80;;
55800;SDS011;41730;51.960;20.158;2022-07-29T12:37:34;4.90;;;0.90;;
55800;SDS011;41730;51.960;20.158;2022-07-29T12:40:09;2.00;;;0.80;;
55800;SDS011;41730;51.960;20.158;2022-07-29T12:45:37;2.70;;;1.00;;
55800;SDS011;41730;51.960;20.158;2022-07-29T12:48:07;4.20;;;1.00;;
55800;SDS011;41730;51.960;20.158;2022-07-29T12:50:50;2.60;;;0.90;;
55800;SDS011;41730;51.960;20.158;2022-07-29T12:53:21;3.10;;;1.10;;
55800;SDS011;41730;51.960;20.158;2022-07-29T12:55:52;5.30;;;0.90;;
55800;SDS011;41730;51.960;20.158;2022-07-29T12:58:33;2.30;;;0.90;;
55800;SDS011;41730;51.960;20.158;2022-07-29T13:01:18;4.30;;;0.90;;
55800;SDS011;41730;51.960;20.158;2022-07-29T13:03:49;3.70;;;0.90;;
55800;SDS011;41730;51.960;20.158;2022-07-29T13:06:30;3.50;;;1.10;;
55800;SDS011;41730;51.960;20.158;2022-07-29T13:09:08;2.80;;;0.90;;
55800;SDS011;41730;51.960;20.158;2022-07-29T13:11:40;4.30;;;1.10;;
55800;SDS011;41730;51.960;20.158;2022-07-29T13:14:29;6.00;;;1.00;;
55800;SDS011;41730;51.960;20.158;2022-07-29T13:17:05;4.30;;;0.90;;
55800;SDS011;41730;51.960;20.158;2022-07-29T13:19:37;2.20;;;0.90;;
55800;SDS011;41730;51.960;20.158;2022-07-29T13:22:08;2.00;;;0.90;;
55800;SDS011;41730;51.960;20.158;2022-07-29T13:24:50;1.80;;;0.90;;
55800;SDS011;41730;51.960;20.158;2022-07-29T13:29:51;3.00;;;1.10;;
55800;SDS011;41730;51.960;20.158;2022-07-29T13:32:23;4.60;;;1.00;;
55800;SDS011;41730;51.960;20.158;2022-07-29T13:34:55;2.90;;;0.80;;
55800;SDS011;41730;51.960;20.158;2022-07-29T13:37:25;6.00;;;1.00;;
55800;SDS011;41730;51.960;20.158;2022-07-29T13:39:56;3.00;;;0.80;;
55800;SDS011;41730;51.960;20.158;2022-07-29T13:42:27;1.40;;;0.80;;
55800;SDS011;41730;51.960;20.158;2022-07-29T13:44:56;2.80;;;0.70;;
55800;SDS011;41730;51.960;20.158;2022-07-29T13:47:26;1.80;;;0.90;;
55800;SDS011;41730;51.960;20.158;2022-07-29T13:49:59;3.70;;;1.20;;
55800;SDS011;41730;51.960;20.158;2022-07-29T13:52:29;2.70;;;0.80;;
55800;SDS011;41730;51.960;20.158;2022-07-29T13:54:59;4.00;;;0.90;;
55800;SDS011;41730;51.960;20.158;2022-07-29T13:57:29;3.00;;;0.90;;
55800;SDS011;41730;51.960;20.158;2022-07-29T13:59:59;2.00;;;0.90;;
55800;SDS011;41730;51.960;20.158;2022-07-29T14:02:28;2.80;;;0.80;;
55800;SDS011;41730;51.960;20.158;2022-07-29T14:04:58;2.90;;;0.90;;
55800;SDS011;41730;51.960;20.158;2022-07-29T14:07:34;2.40;;;0.80;;
55800;SDS011;41730;51.960;20.158;2022-07-29T14:10:04;4.00;;;0.90;;
55800;SDS011;41730;51.960;20.158;2022-07-29T14:12:35;4.10;;;1.30;;
55800;SDS011;41730;51.960;20.158;2022-07-29T14:15:05;2.40;;;1.10;;
55800;SDS011;41730;51.960;20.158;2022-07-29T14:17:35;6.50;;;1.00;;
55800;SDS011;41730;51.960;20.158;2022-07-29T14:20:07;5.20;;;1.10;;
55800;SDS011;41730;51.960;20.158;2022-07-29T14:22:38;2.40;;;0.80;;
55800;SDS011;41730;51.960;20.158;2022-07-29T14:25:11;3.20;;;1.00;;
55800;SDS011;41730;51.960;20.158;2022-07-29T14:27:41;2.50;;;1.10;;
55800;SDS011;41730;51.960;20.158;2022-07-29T14:30:11;2.30;;;1.10;;
55800;SDS011;41730;51.960;20.158;2022-07-29T14:32:41;3.80;;;1.30;;
55800;SDS011;41730;51.960;20.158;2022-07-29T14:35:10;3.90;;;1.10;;
55800;SDS011;41730;51.960;20.158;2022-07-29T14:37:40;2.10;;;1.00;;
55800;SDS011;41730;51.960;20.158;2022-07-29T14:40:10;3.00;;;0.90;;
55800;SDS011;41730;51.960;20.158;2022-07-29T14:42:40;2.90;;;0.90;;
55800;SDS011;41730;51.960;20.158;2022-07-29T14:45:09;3.40;;;1.10;;
55800;SDS011;41730;51.960;20.158;2022-07-29T14:47:38;3.20;;;1.10;;
55800;SDS011;41730;51.960;20.158;2022-07-29T14:50:08;1.90;;;0.80;;
55800;SDS011;41730;51.960;20.158;2022-07-29T14:52:41;3.80;;;0.90;;
55800;SDS011;41730;51.960;20.158;2022-07-29T14:55:10;2.50;;;0.90;;
55800;SDS011;41730;51.960;20.158;2022-07-29T14:57:46;3.40;;;0.90;;
55800;SDS011;41730;51.960;20.158;2022-07-29T15:00:17;2.20;;;0.90;;
55800;SDS011;41730;51.960;20.158;2022-07-29T15:02:47;2.80;;;0.90;;
55800;SDS011;41730;51.960;20.158;2022-07-29T15:05:29;3.10;;;1.00;;
55800;SDS011;41730;51.960;20.158;2022-07-29T15:07:59;6.00;;;0.90;;
55800;SDS011;41730;51.960;20.158;2022-07-29T15:10:28;4.40;;;1.10;;
55800;SDS011;41730;51.960;20.158;2022-07-29T15:12:57;2.50;;;0.80;;
55800;SDS011;41730;51.960;20.158;2022-07-29T15:15:27;3.00;;;0.90;;
55800;SDS011;41730;51.960;20.158;2022-07-29T15:18:05;2.70;;;1.00;;
55800;SDS011;41730;51.960;20.158;2022-07-29T15:21:03;3.20;;;1.10;;
55800;SDS011;41730;51.960;20.158;2022-07-29T15:23:57;3.60;;;1.40;;
55800;SDS011;41730;51.960;20.158;2022-07-29T15:26:58;3.00;;;1.30;;
55800;SDS011;41730;51.960;20.158;2022-07-29T15:29:54;1.80;;;0.80;;
55800;SDS011;41730;51.960;20.158;2022-07-29T15:33:05;3.00;;;0.90;;
55800;SDS011;41730;51.960;20.158;2022-07-29T15:39:18;3.10;;;1.00;;
55800;SDS011;41730;51.960;20.158;2022-07-29T15:42:10;6.40;;;1.00;;